Pecos, New Mexico
Current Conditions -  °F | °C
As of 11:53 AM on Thursday 18 Dec 2014 (Local Time) from KSAF Reporting Station
Clear Clear  
Wind Chill: 34°   Ceiling: Unl
Heat Index: 38°   Visibility: 10mi
Dew Point: 27°   Wind: 5mph
Humidity: 65%   Direction: 340°NNW
Pressure: 30.1"   Gusts: NA
Location:  35.57°N, 105.68°W
Report Text: KSAF 181853Z 34004KT 10SM CLR 03/M03 A3010 RMK AO2 SLP182 T00331028
Loading
Personal Weather Stations






























Interactive Weather Map New forecast layout! Learn more

10-Day Weather Forecast

Advertisements
Track Severe Weather on mobile